createdAt,value
2023-03-13T00:01:00.807Z,5.20
2023-03-13T00:05:01.407Z,4.80
2023-03-13T00:09:02.102Z,3.60
2023-03-13T00:13:02.644Z,5.00
2023-03-13T00:17:01.886Z,4.30
2023-03-13T00:21:02.470Z,5.30
2023-03-13T00:25:01.791Z,6.60
2023-03-13T00:29:01.872Z,3.60
2023-03-13T00:33:08.897Z,4.50
2023-03-13T00:37:11.761Z,4.20
2023-03-13T00:41:12.879Z,6.60
2023-03-13T00:45:17.289Z,7.80
2023-03-13T00:49:16.893Z,4.70
2023-03-13T00:53:19.951Z,2.90
2023-03-13T00:57:21.986Z,3.30
2023-03-13T01:01:24.904Z,3.70
2023-03-13T01:05:24.852Z,2.60
2023-03-13T01:09:28.025Z,4.40
2023-03-13T01:13:22.407Z,1.50
2023-03-13T01:17:32.611Z,1.70
2023-03-13T01:21:32.989Z,1.90
2023-03-13T01:25:35.834Z,1.50
2023-03-13T01:29:35.830Z,3.50
2023-03-13T01:33:49.578Z,2.90
2023-03-13T01:37:52.829Z,2.10
2023-03-13T01:41:51.370Z,2.20
2023-03-13T01:45:52.607Z,3.40
2023-03-13T01:49:56.126Z,1.00
2023-03-13T01:54:13.874Z,1.40
2023-03-13T01:58:16.614Z,2.10
2023-03-13T02:02:15.869Z,3.50
2023-03-13T02:06:14.369Z,2.40
2023-03-13T02:10:08.959Z,5.90
2023-03-13T02:14:14.439Z,1.90
2023-03-13T02:18:14.960Z,3.00
2023-03-13T02:22:18.719Z,1.80
2023-03-13T02:26:18.945Z,1.60
2023-03-13T02:30:28.977Z,3.70
2023-03-13T02:34:29.055Z,3.20
2023-03-13T02:38:28.692Z,2.60
2023-03-13T02:42:22.932Z,1.60
2023-03-13T02:46:31.088Z,2.40
2023-03-13T02:50:32.979Z,0.60
2023-03-13T02:54:36.084Z,1.20
2023-03-13T02:58:35.650Z,1.50
2023-03-13T03:02:41.105Z,1.40
2023-03-13T03:06:35.167Z,1.40
2023-03-13T03:10:34.947Z,3.40
2023-03-13T03:14:45.053Z,1.70
2023-03-13T03:18:48.219Z,0.70
2023-03-13T03:22:48.143Z,2.40
2023-03-13T03:26:52.841Z,0.70
2023-03-13T03:30:57.211Z,1.80
2023-03-13T03:34:56.281Z,3.70
2023-03-13T03:38:51.529Z,1.60
2023-03-13T03:43:00.277Z,0.40
2023-03-13T03:47:09.512Z,3.70
2023-03-13T03:51:16.247Z,1.80
2023-03-13T03:55:18.330Z,0.80
2023-03-13T03:59:21.136Z,1.40
2023-03-13T04:03:22.067Z,0.40
2023-03-13T04:07:20.926Z,1.00
2023-03-13T04:11:24.168Z,0.40
2023-03-13T04:15:29.974Z,1.30
2023-03-13T04:19:32.181Z,2.40
2023-03-13T04:23:36.303Z,1.70
2023-03-13T04:27:35.295Z,0.30
2023-03-13T04:31:34.622Z,0.50
2023-03-13T04:36:05.429Z,0.80
2023-03-13T04:40:26.220Z,0.70
2023-03-13T04:44:35.203Z,3.20
2023-03-13T04:48:38.741Z,0.30
2023-03-13T04:52:54.321Z,0.90
2023-03-13T04:57:07.222Z,2.90
2023-03-13T05:01:29.851Z,1.30
2023-03-13T05:06:02.567Z,2.00
2023-03-13T05:10:17.982Z,16.30
2023-03-13T05:14:23.831Z,1.20
2023-03-13T05:18:29.250Z,4.60
2023-03-13T05:22:58.835Z,3.90
2023-03-13T05:27:04.550Z,1.70
2023-03-13T05:31:13.395Z,0.60
2023-03-13T05:35:13.357Z,6.60
2023-03-13T05:39:22.058Z,31.30
2023-03-13T05:43:10.357Z,19.60
2023-03-13T05:47:09.415Z,19.40
2023-03-13T05:51:23.620Z,25.00
2023-03-13T05:55:44.113Z,23.10
2023-03-13T06:00:13.374Z,39.10
2023-03-13T06:04:27.318Z,3.10
2023-03-13T06:08:32.833Z,2.50
2023-03-13T06:12:34.112Z,2.30
2023-03-13T06:16:31.713Z,3.70
2023-03-13T06:20:42.246Z,4.10
2023-03-13T06:24:39.368Z,4.60
2023-03-13T06:28:39.994Z,2.90
2023-03-13T06:32:31.673Z,16.40
2023-03-13T06:36:19.485Z,8.10
2023-03-13T06:40:05.847Z,4.40
2023-03-13T06:43:52.252Z,2.60
2023-03-13T06:47:39.348Z,2.60
2023-03-13T06:51:25.747Z,1.10
2023-03-13T06:55:12.252Z,2.60
2023-03-13T06:59:19.528Z,1.60
2023-03-13T07:03:16.308Z,2.00
2023-03-13T07:07:29.397Z,2.10
2023-03-13T07:11:32.811Z,2.20
2023-03-13T07:15:33.870Z,5.20
2023-03-13T07:19:34.535Z,2.60
2023-03-13T07:23:35.115Z,4.40
2023-03-13T07:27:31.842Z,2.30
2023-03-13T07:31:33.659Z,1.40
2023-03-13T07:35:30.323Z,0.80
2023-03-13T07:39:32.297Z,2.40
2023-03-13T07:43:29.834Z,11.30
2023-03-13T07:47:30.168Z,2.70
2023-03-13T07:51:40.775Z,2.80
2023-03-13T07:55:45.885Z,1.10
2023-03-13T07:59:42.892Z,2.70
2023-03-13T08:03:43.836Z,2.20
2023-03-13T08:07:46.711Z,4.40
2023-03-13T08:11:47.071Z,2.90
2023-03-13T08:15:44.041Z,2.70
2023-03-13T08:19:43.949Z,3.80
2023-03-13T08:23:40.617Z,3.50
2023-03-13T08:27:43.691Z,2.90
2023-03-13T08:31:39.817Z,1.80
2023-03-13T08:35:40.756Z,2.70
2023-03-13T08:39:43.614Z,0.80
2023-03-13T08:43:43.854Z,1.50
2023-03-13T08:47:47.557Z,4.00
2023-03-13T08:51:48.715Z,2.50
2023-03-13T08:55:51.543Z,2.00
2023-03-13T08:59:51.822Z,2.80
2023-03-13T09:03:54.595Z,2.00
2023-03-13T09:07:53.659Z,2.40
2023-03-13T09:11:52.255Z,4.40
2023-03-13T09:15:50.378Z,1.90
2023-03-13T09:20:01.726Z,4.50
2023-03-13T09:24:01.660Z,2.50
2023-03-13T09:28:04.377Z,1.30
2023-03-13T09:32:04.941Z,2.50
2023-03-13T09:36:09.742Z,2.50
2023-03-13T09:40:07.829Z,2.30
2023-03-13T09:44:07.165Z,2.90
2023-03-13T09:48:09.643Z,2.20
2023-03-13T09:52:16.184Z,2.20
2023-03-13T09:56:13.914Z,1.60
2023-03-13T10:00:16.751Z,2.50
2023-03-13T10:04:18.062Z,3.60
2023-03-13T10:08:18.529Z,1.90
2023-03-13T10:12:12.697Z,3.30
2023-03-13T10:16:13.526Z,2.90
2023-03-13T10:20:10.277Z,2.00
2023-03-13T10:24:11.138Z,2.70
2023-03-13T10:28:11.981Z,4.30
2023-03-13T10:32:12.499Z,4.40
2023-03-13T10:36:09.294Z,2.30
2023-03-13T10:40:07.788Z,2.40
2023-03-13T10:44:08.727Z,4.30
2023-03-13T10:48:09.063Z,2.00
2023-03-13T10:52:08.039Z,3.50
2023-03-13T10:56:08.400Z,4.20
2023-03-13T11:00:04.946Z,2.90
2023-03-13T11:04:03.429Z,3.70
2023-03-13T11:07:57.933Z,4.00
2023-03-13T11:12:00.456Z,4.20
2023-03-13T11:15:57.022Z,2.30
2023-03-13T11:19:57.727Z,3.40
2023-03-13T11:23:53.854Z,2.60
2023-03-13T11:27:54.388Z,2.60
2023-03-13T11:31:50.862Z,2.30
2023-03-13T11:35:54.350Z,2.40
2023-03-13T11:39:49.763Z,2.80
2023-03-13T11:43:48.170Z,4.00
2023-03-13T11:47:48.883Z,5.80
2023-03-13T11:51:49.343Z,2.90
2023-03-13T11:55:46.393Z,3.00
2023-03-13T11:59:48.210Z,3.90
2023-03-13T12:03:46.517Z,3.30
2023-03-13T12:07:46.143Z,2.50
2023-03-13T12:11:48.306Z,2.50
2023-03-13T12:15:48.409Z,3.30
2023-03-13T12:19:45.938Z,3.00
2023-03-13T12:23:46.212Z,5.00
2023-03-13T12:27:43.925Z,2.80
2023-03-13T12:31:46.430Z,2.80
2023-03-13T12:35:40.655Z,7.60
2023-03-13T12:39:45.221Z,2.50
2023-03-13T12:43:42.283Z,2.50
2023-03-13T12:47:42.825Z,4.40
2023-03-13T12:51:39.245Z,1.60
2023-03-13T12:55:39.919Z,3.00
2023-03-13T12:59:36.233Z,2.70
2023-03-13T13:03:34.226Z,3.90
2023-03-13T13:07:34.841Z,3.50
2023-03-13T13:11:35.670Z,3.90
2023-03-13T13:15:32.491Z,7.20
2023-03-13T13:19:33.412Z,2.50
2023-03-13T13:23:30.345Z,3.60
2023-03-13T13:27:29.095Z,4.40
2023-03-13T13:31:23.728Z,2.70
2023-03-13T13:35:24.207Z,4.90
2023-03-13T13:39:22.087Z,4.40
2023-03-13T13:43:22.808Z,1.70
2023-03-13T13:47:19.220Z,3.10
2023-03-13T13:51:19.795Z,3.70
2023-03-13T13:55:23.012Z,1.50
2023-03-13T13:59:27.488Z,3.40
2023-03-13T14:03:24.077Z,1.80
2023-03-13T14:07:25.024Z,3.00
2023-03-13T14:11:24.402Z,1.20
2023-03-13T14:15:24.719Z,2.90
2023-03-13T14:19:20.166Z,1.60
2023-03-13T14:23:19.416Z,2.30
2023-03-13T14:27:16.512Z,4.40
2023-03-13T14:31:17.215Z,2.40
2023-03-13T14:35:13.242Z,2.80
2023-03-13T14:39:13.589Z,3.00
2023-03-13T14:43:11.405Z,2.00
2023-03-13T14:47:10.761Z,2.50
2023-03-13T14:51:16.093Z,4.40
2023-03-13T14:55:17.307Z,3.50
2023-03-13T14:59:18.441Z,2.00
2023-03-13T15:03:18.634Z,2.50
2023-03-13T15:07:15.384Z,5.60
2023-03-13T15:11:18.030Z,2.20
2023-03-13T15:15:12.081Z,2.80
2023-03-13T15:19:16.588Z,3.70
2023-03-13T15:26:52.484Z,3.20
2023-03-13T15:30:52.884Z,4.60
2023-03-13T15:34:49.377Z,2.80
2023-03-13T15:38:50.861Z,12.20
2023-03-13T15:42:45.245Z,7.50
2023-03-13T15:46:49.510Z,2.40
2023-03-13T15:50:47.507Z,2.80
2023-03-13T15:54:48.156Z,2.20
2023-03-13T15:58:45.521Z,5.00
2023-03-13T16:02:46.761Z,5.40
2023-03-13T16:06:41.442Z,22.70
2023-03-13T16:10:40.144Z,56.30
2023-03-13T16:14:40.852Z,54.80
2023-03-13T16:18:42.142Z,57.30
2023-03-13T16:22:40.354Z,209.00
2023-03-13T16:26:41.703Z,123.40
2023-03-13T16:30:38.539Z,98.90
2023-03-13T16:34:32.784Z,134.20
2023-03-13T16:38:19.143Z,130.70
2023-03-13T16:42:05.200Z,127.70
2023-03-13T16:45:53.668Z,92.30
2023-03-13T16:49:47.767Z,73.40
2023-03-13T16:53:41.642Z,68.70
2023-03-13T16:57:38.645Z,77.40
2023-03-13T17:01:39.190Z,102.20
2023-03-13T17:05:35.292Z,64.20
2023-03-13T17:09:39.482Z,37.80
2023-03-13T17:13:36.761Z,38.90
2023-03-13T17:17:38.046Z,46.60
2023-03-13T17:21:35.724Z,74.30
2023-03-13T17:25:31.952Z,158.90
2023-03-13T17:29:18.608Z,94.60
2023-03-13T17:33:04.813Z,152.30
2023-03-13T17:36:51.651Z,97.80
2023-03-13T17:40:37.452Z,70.50
2023-03-13T17:44:24.099Z,254.70
2023-03-13T17:48:10.316Z,58.70
2023-03-13T17:51:56.490Z,29.10
2023-03-13T17:55:48.562Z,28.10
2023-03-13T17:59:41.545Z,24.30
2023-03-13T18:03:42.233Z,15.60
2023-03-13T18:07:42.775Z,18.30
2023-03-13T18:11:44.567Z,25.20
2023-03-13T18:15:45.562Z,20.80
2023-03-13T18:19:50.900Z,30.50
2023-03-13T18:23:47.725Z,43.20
2023-03-13T18:27:44.898Z,29.90
2023-03-13T18:31:45.572Z,12.70
2023-03-13T18:35:31.875Z,52.10
2023-03-13T18:39:32.948Z,22.40
2023-03-13T18:43:30.879Z,13.90
2023-03-13T18:47:27.536Z,17.90
2023-03-13T18:51:30.345Z,9.40
2023-03-13T18:55:27.085Z,9.10
2023-03-13T18:59:27.709Z,10.00
2023-03-13T19:03:24.709Z,18.90
2023-03-13T19:07:29.296Z,21.30
2023-03-13T19:11:26.047Z,22.80
2023-03-13T19:15:30.732Z,12.30
2023-03-13T19:19:28.196Z,25.70
2023-03-13T19:23:29.759Z,8.30
2023-03-13T19:27:27.292Z,15.80
2023-03-13T19:31:27.782Z,13.80
2023-03-13T19:35:28.578Z,17.70
2023-03-13T19:39:29.779Z,60.50
2023-03-13T19:43:28.435Z,10.50
2023-03-13T19:47:29.886Z,7.90
2023-03-13T19:51:28.042Z,14.60
2023-03-13T19:55:28.779Z,8.80
2023-03-13T19:59:28.836Z,8.40
2023-03-13T20:03:34.762Z,10.10
2023-03-13T20:07:32.972Z,7.60
2023-03-13T20:11:33.860Z,6.40
2023-03-13T20:15:43.526Z,3.80
2023-03-13T20:19:44.693Z,13.00
2023-03-13T20:23:42.499Z,4.90
2023-03-13T20:27:42.709Z,6.90
2023-03-13T20:31:42.835Z,8.50
2023-03-13T20:35:47.896Z,4.30
2023-03-13T20:39:47.963Z,9.50
2023-03-13T20:43:51.911Z,12.10
2023-03-13T20:47:52.813Z,6.50
2023-03-13T20:51:55.909Z,9.10
2023-03-13T20:55:56.284Z,15.90
2023-03-13T20:59:57.770Z,15.00
2023-03-13T21:03:59.817Z,18.40
2023-03-13T21:08:00.848Z,25.50
2023-03-13T21:12:02.702Z,13.50
2023-03-13T21:16:03.443Z,8.40
2023-03-13T21:20:02.025Z,14.30
2023-03-13T21:24:04.776Z,4.20
2023-03-13T21:28:03.934Z,4.70
2023-03-13T21:32:06.471Z,5.20
2023-03-13T21:36:06.268Z,5.80
2023-03-13T21:40:08.852Z,3.60
2023-03-13T21:44:09.016Z,6.50
2023-03-13T21:48:10.890Z,2.60
2023-03-13T21:52:09.029Z,6.00
2023-03-13T21:56:11.910Z,4.60
2023-03-13T22:00:17.053Z,6.10
2023-03-13T22:04:18.834Z,9.40
2023-03-13T22:08:20.051Z,5.20
2023-03-13T22:12:22.481Z,9.00
2023-03-13T22:16:22.103Z,6.70
2023-03-13T22:20:31.972Z,12.90
2023-03-13T22:24:32.269Z,5.70
2023-03-13T22:28:34.498Z,7.00
2023-03-13T22:32:33.152Z,3.60
2023-03-13T22:36:35.987Z,4.10
2023-03-13T22:40:36.096Z,4.30
2023-03-13T22:44:39.642Z,5.40
2023-03-13T22:48:38.936Z,4.00
2023-03-13T22:52:41.651Z,2.10
2023-03-13T22:56:43.099Z,2.20
2023-03-13T23:00:46.130Z,4.60
2023-03-13T23:04:45.089Z,2.20
2023-03-13T23:08:50.043Z,4.00
2023-03-13T23:12:48.185Z,6.30
2023-03-13T23:16:51.604Z,3.60
2023-03-13T23:20:50.132Z,4.40
2023-03-13T23:24:54.221Z,4.10
2023-03-13T23:28:53.208Z,3.60
2023-03-13T23:32:55.531Z,2.70
2023-03-13T23:36:55.160Z,3.40
2023-03-13T23:41:02.580Z,2.80
2023-03-13T23:45:02.217Z,2.60
2023-03-13T23:49:05.517Z,3.40
2023-03-13T23:53:04.224Z,4.20
2023-03-13T23:57:06.721Z,2.90
